Time;durP1;ratioP1;P1;durP2;ratioP2;P2;SDS_P1;SDS_P2;PMS_P1;PMS_P2;Temp;Humidity;BMP_temperature;BMP_pressure;BME280_temperature;BME280_humidity;BME280_pressure;Samples;Min_cycle;Max_cycle;Signal;HPM_P1;HPM_P2
2022/09/03 08:01:24;;;;;;;2.08;1.33;;;;;;;;;;6179786;23;20887;-79
2022/09/03 08:03:52;;;;;;;1.52;1.15;;;;;;;;;;6173096;23;20358;-79
2022/09/03 08:06:19;;;;;;;1.17;1.00;;;;;;;;;;6174569;23;20158;-80
2022/09/03 08:08:45;;;;;;;1.60;1.45;;;;;;;;;;6172743;23;20929;-80
2022/09/03 08:11:12;;;;;;;1.23;1.13;;;;;;;;;;6175091;23;20231;-80
2022/09/03 08:13:39;;;;;;;2.63;1.35;;;;;;;;;;6174578;23;20167;-80
2022/09/03 08:16:05;;;;;;;3.75;1.70;;;;;;;;;;6173609;23;20553;-79
2022/09/03 08:18:36;;;;;;;2.35;1.42;;;;;;;;;;6174073;23;20526;-80
2022/09/03 08:21:03;;;;;;;2.10;1.20;;;;;;;;;;6176611;23;20159;-80
2022/09/03 08:23:29;;;;;;;1.40;1.30;;;;;;;;;;6174028;23;20174;-80
2022/09/03 08:26:02;;;;;;;1.00;0.90;;;;;;;;;;6175783;23;20147;-80
2022/09/03 08:28:28;;;;;;;1.70;1.10;;;;;;;;;;6173534;23;20613;-79
2022/09/03 08:30:54;;;;;;;1.65;1.20;;;;;;;;;;6174070;23;20162;-79
2022/09/03 08:33:35;;;;;;;2.30;1.10;;;;;;;;;;6173393;23;20194;-80
2022/09/03 08:36:07;;;;;;;2.55;1.02;;;;;;;;;;6176362;23;20683;-80
2022/09/03 08:38:34;;;;;;;2.10;1.00;;;;;;;;;;6176060;23;20159;-81
2022/09/03 08:41:23;;;;;;;1.40;1.10;;;;;;;;;;6175755;23;20202;-79
2022/09/03 08:43:51;;;;;;;1.40;1.20;;;;;;;;;;6173673;23;20561;-79
2022/09/03 08:46:17;;;;;;;1.83;0.85;;;;;;;;;;6174254;23;20158;-79
2022/09/03 08:48:46;;;;;;;1.45;1.00;;;;;;;;;;6175333;23;20173;-80
2022/09/03 08:51:15;;;;;;;1.23;1.10;;;;;;;;;;6176080;23;20222;-79
2022/09/03 08:53:46;;;;;;;2.85;1.00;;;;;;;;;;6175398;23;20171;-80
2022/09/03 08:56:19;;;;;;;2.67;1.05;;;;;;;;;;6175718;23;20143;-80
2022/09/03 08:58:45;;;;;;;2.17;0.90;;;;;;;;;;6173904;23;20147;-79
2022/09/03 09:01:23;;;;;;;1.75;1.20;;;;;;;;;;6174040;23;20186;-80
2022/09/03 09:04:18;;;;;;;4.45;1.20;;;;;;;;;;6173444;23;20189;-79
2022/09/03 09:06:49;;;;;;;1.27;0.90;;;;;;;;;;6149727;23;20593;-80
2022/09/03 09:09:30;;;;;;;4.30;1.23;;;;;;;;;;6174880;23;20143;-79
2022/09/03 09:12:15;;;;;;;1.83;1.20;;;;;;;;;;6173804;23;20173;-80
2022/09/03 09:14:55;;;;;;;3.50;1.10;;;;;;;;;;6175097;23;20724;-79
2022/09/03 09:17:26;;;;;;;2.42;1.10;;;;;;;;;;6174867;23;20174;-80
2022/09/03 09:19:52;;;;;;;3.53;1.13;;;;;;;;;;6175466;23;20158;-80
2022/09/03 09:22:27;;;;;;;3.10;1.20;;;;;;;;;;6175334;23;20174;-82
2022/09/03 09:24:54;;;;;;;3.95;1.08;;;;;;;;;;6173846;23;20175;-79
2022/09/03 09:27:20;;;;;;;1.45;0.93;;;;;;;;;;6175646;23;20517;-79
2022/09/03 09:29:48;;;;;;;3.75;1.20;;;;;;;;;;6174253;23;20555;-79
2022/09/03 09:32:16;;;;;;;2.17;1.02;;;;;;;;;;6173964;23;20163;-79
2022/09/03 09:34:42;;;;;;;1.75;0.85;;;20.80;99.90;;;;;;6175075;23;20178;-80
2022/09/03 09:37:10;;;;;;;2.72;1.30;;;;;;;;;;6175755;23;20175;-80
2022/09/03 09:39:36;;;;;;;2.83;1.00;;;;;;;;;;6175800;23;20158;-79
2022/09/03 09:42:10;;;;;;;4.25;0.80;;;;;;;;;;6173443;23;20411;-79
2022/09/03 09:44:41;;;;;;;5.05;1.50;;;;;;;;;;6175862;23;20589;-79
2022/09/03 09:47:11;;;;;;;13.18;1.73;;;;;;;;;;6175767;23;20198;-80
2022/09/03 09:49:42;;;;;;;2.88;1.00;;;;;;;;;;6173779;23;20161;-80
2022/09/03 09:52:13;;;;;;;2.03;0.80;;;;;;;;;;6174965;23;20484;-79
2022/09/03 09:54:40;;;;;;;5.40;1.00;;;;;;;;;;6175499;23;20499;-80
2022/09/03 09:57:07;;;;;;;9.68;1.48;;;;;;;;;;6175900;23;20182;-79
2022/09/03 09:59:34;;;;;;;5.63;1.00;;;;;;;;;;6175014;23;20189;-79
2022/09/03 10:02:08;;;;;;;9.57;1.35;;;;;;;;;;6175321;23;20599;-79
2022/09/03 10:04:34;;;;;;;3.90;0.90;;;;;;;;;;6174856;23;20174;-79
2022/09/03 10:07:05;;;;;;;1.90;0.60;;;;;;;;;;6174020;23;20163;-80
2022/09/03 10:09:32;;;;;;;2.70;0.88;;;;;;;;;;6174058;23;20171;-80
2022/09/03 10:12:27;;;;;;;3.17;0.90;;;;;;;;;;6173950;23;20218;-79
2022/09/03 10:14:59;;;;;;;3.22;0.80;;;;;;;;;;6149841;23;20183;-79
2022/09/03 10:17:31;;;;;;;0.90;0.60;;;;;;;;;;6173797;23;20221;-79
2022/09/03 10:22:47;;;;;;;4.80;0.90;;;;;;;;;;6175573;23;20166;-80
2022/09/03 10:25:15;;;;;;;1.95;0.88;;;;;;;;;;6173088;23;20253;-79
2022/09/03 10:27:43;;;;;;;0.93;0.88;;;;;;;;;;6175310;23;20209;-80
2022/09/03 10:30:10;;;;;;;0.70;0.65;;;;;;;;;;6173554;23;20162;-79
2022/09/03 10:32:52;;;;;;;2.72;0.80;;;;;;;;;;6173169;23;20378;-79
2022/09/03 10:35:23;;;;;;;1.75;0.75;;;;;;;;;;6175176;23;20694;-79
2022/09/03 10:38:09;;;;;;;2.17;0.80;;;;;;;;;;6174868;23;20167;-79
2022/09/03 10:40:38;;;;;;;4.20;0.90;;;;;;;;;;6175162;23;20181;-80
2022/09/03 10:43:14;;;;;;;2.28;0.65;;;;;;;;;;6175263;23;20154;-79
2022/09/03 10:45:53;;;;;;;1.65;0.70;;;;;;;;;;6175637;23;20178;-79
2022/09/03 10:48:19;;;;;;;1.55;0.60;;;;;;;;;;6174929;23;20151;-79
2022/09/03 10:51:04;;;;;;;4.40;1.10;;;;;;;;;;6175067;23;20162;-80
2022/09/03 10:53:48;;;;;;;2.65;0.90;;;;;;;;;;6174930;23;20181;-79
2022/09/03 10:56:26;;;;;;;1.65;0.93;;;;;;;;;;6173395;23;20619;-79
2022/09/03 10:59:05;;;;;;;1.23;0.70;;;;;;;;;;6174030;23;20170;-80
2022/09/03 11:01:30;;;;;;;2.88;1.00;;;;;;;;;;6176123;23;20259;-79
2022/09/03 11:04:15;;;;;;;1.48;0.70;;;;;;;;;;6175711;23;20171;-80
2022/09/03 11:06:52;;;;;;;1.15;0.90;;;;;;;;;;6175910;23;20296;-79
2022/09/03 11:09:21;;;;;;;2.30;1.02;;;;;;;;;;6173486;23;20155;-79
2022/09/03 11:11:50;;;;;;;0.65;0.65;;;;;;;;;;6173514;23;20163;-79
2022/09/03 11:14:24;;;;;;;1.95;0.70;;;;;;;;;;6173253;23;20714;-77
2022/09/03 11:16:53;;;;;;;2.10;0.88;;;;;;;;;;6175435;23;20642;-79
2022/09/03 11:19:22;;;;;;;3.65;0.90;;;;;;;;;;6175700;23;20217;-79
2022/09/03 11:21:49;;;;;;;1.00;0.80;;;;;;;;;;6176143;23;20155;-80
2022/09/03 11:24:22;;;;;;;1.98;0.80;;;;;;;;;;6175155;23;20213;-79
2022/09/03 11:26:53;;;;;;;3.10;1.10;;;;;;;;;;6175670;23;20155;-79
2022/09/03 11:29:22;;;;;;;1.75;0.80;;;;;;;;;;6177231;23;20201;-79
2022/09/03 11:31:56;;;;;;;1.75;1.00;;;;;;;;;;6175034;23;20167;-79
2022/09/03 11:34:32;;;;;;;2.33;0.90;;;;;;;;;;6175083;23;20680;-80
2022/09/03 11:37:06;;;;;;;4.93;0.90;;;;;;;;;;6177624;23;20174;-79
2022/09/03 11:39:32;;;;;;;3.83;0.90;;;;;;;;;;6176216;23;20158;-80
2022/09/03 11:42:05;;;;;;;1.70;0.77;;;;;;;;;;6175365;23;20155;-79
2022/09/03 11:44:36;;;;;;;2.13;0.93;;;;;;;;;;6174892;23;20249;-79
2022/09/03 11:47:12;;;;;;;2.40;0.80;;;;;;;;;;6177258;23;20209;-79
2022/09/03 11:49:43;;;;;;;1.85;0.80;;;;;;;;;;6176773;23;20147;-79
2022/09/03 11:52:11;;;;;;;1.33;0.98;;;;;;;;;;6175717;23;20563;-80
2022/09/03 11:54:44;;;;;;;1.65;1.05;;;;;;;;;;6174976;23;20655;-79
2022/09/03 11:57:21;;;;;;;2.20;0.82;;;;;;;;;;6175107;23;20191;-79
2022/09/03 11:59:47;;;;;;;3.53;1.08;;;;;;;;;;6177416;23;20538;-79
2022/09/03 12:02:19;;;;;;;0.82;0.82;;;;;;;;;;6174512;23;20474;-79
2022/09/03 12:05:04;;;;;;;1.25;0.80;;;;;;;;;;6177097;23;20179;-79
2022/09/03 12:07:50;;;;;;;2.83;0.98;;;;;;;;;;6175197;23;20166;-79
2022/09/03 12:10:17;;;;;;;1.00;0.90;;;;;;;;;;6175430;23;20151;-79
2022/09/03 12:12:46;;;;;;;3.03;0.80;;;;;;;;;;6175082;23;20166;-79
2022/09/03 12:15:30;;;;;;;1.00;0.88;;;;;;;;;;6176302;23;20175;-79
2022/09/03 12:18:18;;;;;;;0.88;0.80;;;;;;;;;;6174723;23;20194;-79
2022/09/03 12:20:45;;;;;;;2.65;0.80;;;;;;;;;;6176468;23;20178;-79
2022/09/03 12:23:41;;;;;;;2.50;0.90;;;22.90;1.00;;;;;;6174696;23;20170;-78
2022/09/03 12:26:13;;;;;;;1.05;0.90;;;;;;;;;;6174431;23;20215;-79
2022/09/03 12:28:40;;;;;;;2.08;0.75;;;;;;;;;;6176484;23;20144;-79
2022/09/03 12:31:28;;;;;;;1.10;1.00;;;;;;;;;;6174481;23;20846;-79
2022/09/03 12:34:09;;;;;;;2.80;0.90;;;;;;;;;;6175808;23;20181;-79
2022/09/03 12:36:40;;;;;;;1.30;0.90;;;;;;;;;;6174064;23;20170;-79
2022/09/03 12:39:09;;;;;;;1.42;0.75;;;;;;;;;;6174413;23;20164;-79
2022/09/03 12:41:36;;;;;;;0.75;0.65;;;;;;;;;;6176645;23;20151;-80
2022/09/03 12:44:02;;;;;;;2.67;0.90;;;;;;;;;;6174531;23;20179;-79
2022/09/03 12:46:29;;;;;;;0.93;0.90;;;;;;;;;;6174560;23;20166;-78
2022/09/03 12:49:04;;;;;;;2.05;0.80;;;;;;;;;;6174446;23;20246;-78
2022/09/03 12:51:37;;;;;;;1.58;1.00;;;;;;;;;;6174709;23;20151;-80
2022/09/03 12:54:06;;;;;;;1.15;0.95;;;;;;;;;;6173813;23;20244;-79
2022/09/03 12:56:33;;;;;;;1.88;0.90;;;;;;;;;;6174501;23;20158;-79
2022/09/03 12:59:02;;;;;;;1.77;0.70;;;;;;;;;;6175365;23;20170;-79
2022/09/03 13:01:30;;;;;;;1.77;0.80;;;;;;;;;;6174470;23;20539;-79
2022/09/03 13:03:59;;;;;;;0.98;0.70;;;;;;;;;;6174007;23;20257;-80
2022/09/03 13:06:28;;;;;;;1.40;0.88;;;;;;;;;;6174094;23;20165;-79
2022/09/03 13:09:00;;;;;;;1.73;1.00;;;;;;;;;;6174213;23;20162;-79
2022/09/03 13:11:27;;;;;;;1.55;1.05;;;;;;;;;;6175829;23;20590;-79
2022/09/03 13:14:01;;;;;;;1.95;0.93;;;;;;;;;;6176058;23;20175;-79
2022/09/03 13:16:45;;;;;;;1.10;1.00;;;;;;;;;;6176164;23;20202;-79
2022/09/03 13:19:29;;;;;;;2.45;0.95;;;;;;;;;;6176071;23;20196;-79
2022/09/03 13:22:01;;;;;;;3.65;0.98;;;;;;;;;;6175589;23;20190;-79
2022/09/03 13:24:30;;;;;;;1.92;0.95;;;;;;;;;;6174127;23;20183;-79
2022/09/03 13:27:16;;;;;;;1.85;0.93;;;;;;;;;;6175396;23;20163;-79
2022/09/03 13:29:54;;;;;;;1.58;1.05;;;;;;;;;;6175781;23;20155;-80
2022/09/03 13:32:23;;;;;;;1.02;0.90;;;;;;;;;;6173475;23;20569;-79
2022/09/03 13:34:56;;;;;;;2.20;0.80;;;;;;;;;;6175294;23;20182;-80
2022/09/03 13:37:26;;;;;;;1.20;0.80;;;;;;;;;;6174867;23;20250;-79
2022/09/03 13:39:59;;;;;;;2.53;1.10;;;;;;;;;;6175906;23;20158;-79
2022/09/03 13:42:30;;;;;;;1.15;1.00;;;;;;;;;;6173868;23;20159;-79
2022/09/03 13:45:04;;;;;;;1.13;1.02;;;;;;;;;;6173841;23;20179;-79
2022/09/03 13:50:20;;;;;;;3.03;1.05;;;;;;;;;;6175249;23;20689;-79
2022/09/03 13:50:41;;;;;;;1.30;1.00;;;;;;;;;;6174995;23;20217;-80
2022/09/03 13:53:13;;;;;;;1.35;1.10;;;;;;;;;;6175047;23;20147;-80
2022/09/03 13:55:54;;;;;;;1.35;1.20;;;;;;;;;;6175821;23;20159;-80
2022/09/03 13:58:20;;;;;;;2.42;1.00;;;;;;;;;;6172837;23;20211;-80
2022/09/03 14:00:50;;;;;;;1.95;1.10;;;;;;;;;;6172968;23;20175;-79
2022/09/03 14:03:36;;;;;;;1.45;1.10;;;;;;;;;;6173269;23;20493;-80
2022/09/03 14:06:08;;;;;;;1.48;0.80;;;;;;;;;;6175153;23;20158;-79
2022/09/03 14:08:47;;;;;;;1.17;1.00;;;;;;;;;;6175114;23;20143;-80
2022/09/03 14:11:13;;;;;;;2.20;1.00;;;;;;;;;;6173369;23;20499;-80
2022/09/03 14:13:56;;;;;;;1.73;1.00;;;;;;;;;;6175364;23;20182;-80
2022/09/03 14:16:24;;;;;;;2.53;0.90;;;;;;;;;;6175640;23;20147;-80
2022/09/03 14:19:17;;;;;;;4.15;0.90;;;;;;;;;;6174981;23;20159;-80
2022/09/03 14:21:50;;;;;;;1.35;1.20;;;;;;;;;;6166308;23;20552;-80
2022/09/03 14:24:20;;;;;;;1.50;1.13;;;;;;;;;;6174749;23;20175;-79
2022/09/03 14:26:52;;;;;;;1.80;1.10;;;;;;;;;;6172759;23;20152;-80
2022/09/03 14:29:20;;;;;;;1.95;0.90;;;;;;;;;;6173445;23;20163;-79
2022/09/03 14:32:05;;;;;;;1.98;1.10;;;;;;;;;;6173199;23;20185;-80
2022/09/03 14:34:50;;;;;;;2.50;1.13;;;;;;;;;;6174372;23;20421;-79
2022/09/03 14:37:34;;;;;;;1.75;1.00;;;;;;;;;;6174506;23;20587;-79
2022/09/03 14:40:11;;;;;;;1.70;1.40;;;;;;;;;;6172669;23;20356;-79
2022/09/03 14:42:43;;;;;;;1.48;1.15;;;;;;;;;;6174375;23;20208;-79
2022/09/03 14:45:11;;;;;;;1.40;1.10;;;;;;;;;;6172321;23;20675;-80
2022/09/03 14:47:56;;;;;;;1.45;1.00;;;;;;;;;;6172557;23;20170;-80
2022/09/03 14:50:24;;;;;;;3.85;1.45;;;;;;;;;;6173908;23;20508;-79
2022/09/03 14:53:05;;;;;;;1.88;1.23;;;;;;;;;;6172518;23;20198;-79
2022/09/03 14:55:31;;;;;;;3.25;1.38;;;;;;;;;;6174181;23;20186;-80
2022/09/03 14:58:15;;;;;;;1.40;1.10;;;;;;;;;;6172029;23;20197;-80
2022/09/03 15:00:51;;;;;;;1.35;1.00;;;;;;;;;;6172440;23;20185;-80
2022/09/03 15:03:26;;;;;;;1.73;1.20;;;;;;;;;;6173631;23;20367;-80
2022/09/03 15:06:11;;;;;;;1.60;1.08;;;;;;;;;;6174339;23;20181;-80
2022/09/03 15:08:54;;;;;;;4.85;1.63;;;;;;;;;;6174387;23;20240;-80
2022/09/03 15:11:22;;;;;;;1.77;1.30;;;;;;;;;;6174555;23;20170;-80
2022/09/03 15:14:14;;;;;;;2.22;1.13;;;;;;;;;;6173932;23;20183;-80
2022/09/03 15:16:47;;;;;;;2.67;1.33;;;;;;;;;;6116849;23;20569;-80
2022/09/03 15:19:35;;;;;;;3.70;1.25;;;;;;;;;;6172576;23;20511;-80
2022/09/03 15:22:11;;;;;;;3.53;1.48;;;;;;;;;;6173918;23;20532;-80
2022/09/03 15:24:56;;;;;;;1.05;0.82;;;;;;;;;;6172427;23;20182;-79
2022/09/03 15:27:36;;;;;;;3.15;1.40;;;;;;;;;;6172119;23;20158;-79
2022/09/03 15:30:08;;;;;;;1.83;1.05;;;;;;;;;;6172425;23;20698;-80
2022/09/03 15:32:34;;;;;;;1.58;1.27;;;;;;;;;;6174254;23;20155;-80
2022/09/03 15:35:03;;;;;;;2.00;1.30;;;;;;;;;;6172205;23;20189;-80
2022/09/03 15:37:35;;;;;;;2.90;1.30;;;;;;;;;;6173575;23;20890;-80
2022/09/03 15:40:05;;;;;;;2.25;1.23;;;;;;;;;;6174292;23;20494;-80
2022/09/03 15:42:31;;;;;;;2.55;1.10;;;;;;;;;;6173454;23;20147;-80
2022/09/03 15:45:03;;;;;;;3.55;1.25;;;;;;;;;;6172273;23;20585;-80
2022/09/03 15:47:44;;;;;;;1.95;1.10;;;;;;;;;;6173789;23;20414;-79
2022/09/03 15:50:29;;;;;;;2.15;1.17;;;;;;;;;;6172061;23;20516;-79
2022/09/03 15:53:04;;;;;;;1.30;1.20;;;;;;;;;;6174314;23;20158;-80
2022/09/03 15:55:38;;;;;;;1.63;1.33;;;;;;;;;;6174202;23;20201;-80
2022/09/03 15:58:22;;;;;;;1.70;1.00;;;;;;;;;;6171753;23;20218;-80
2022/09/03 16:01:01;;;;;;;2.08;1.20;;;;;;;;;;6173759;23;20166;-81
2022/09/03 16:03:43;;;;;;;2.95;1.23;;;;;;;;;;6172924;23;20525;-80
2022/09/03 16:06:25;;;;;;;3.35;1.20;;;;;;;;;;6173966;23;20160;-80
2022/09/03 16:09:02;;;;;;;1.88;1.23;;;;;;;;;;6175879;23;20533;-80
2022/09/03 16:12:01;;;;;;;2.17;1.23;;;;;;;;;;6174379;23;20159;-80
2022/09/03 16:14:30;;;;;;;2.38;1.40;;;;;;;;;;6094993;23;20723;-80
2022/09/03 16:16:59;;;;;;;4.57;1.52;;;;;;;;;;6174192;23;20841;-80
2022/09/03 16:19:40;;;;;;;2.60;1.48;;;;;;;;;;6174626;23;20155;-80
2022/09/03 16:22:15;;;;;;;2.88;1.20;;;;;;;;;;6174108;23;20178;-80
2022/09/03 16:24:54;;;;;;;2.33;1.52;;;;;;;;;;6175701;23;20682;-81
2022/09/03 16:27:23;;;;;;;1.67;1.33;;;;;;;;;;6173659;23;20159;-79
2022/09/03 16:30:01;;;;;;;2.63;1.30;;;;;;;;;;6175188;23;20241;-81
2022/09/03 16:32:33;;;;;;;1.17;1.08;;;;;;;;;;6173663;23;20270;-80
2022/09/03 16:35:06;;;;;;;2.65;1.30;;;;;;;;;;6175809;23;20890;-80
2022/09/03 16:37:47;;;;;;;2.28;1.10;;;;;;;;;;6175351;23;20607;-79
2022/09/03 16:40:28;;;;;;;2.10;1.20;;;;;;;;;;6173965;23;20154;-79
2022/09/03 16:43:01;;;;;;;1.75;1.10;;;;;;;;;;6173664;23;20151;-80
2022/09/03 16:45:47;;;;;;;1.38;1.23;;;;;;;;;;6175274;23;20489;-80
2022/09/03 16:48:19;;;;;;;3.10;1.33;;;;;;;;;;6175615;23;20136;-80
2022/09/03 16:51:05;;;;;;;3.35;1.42;;;;;;;;;;6173742;23;20162;-80
2022/09/03 16:53:32;;;;;;;3.50;1.35;;;;;;;;;;6173498;23;20214;-79
2022/09/03 16:56:06;;;;;;;1.67;1.30;;;;;;;;;;6173856;23;20458;-80
2022/09/03 16:58:43;;;;;;;2.85;1.48;;;;;;;;;;6173402;23;20218;-80
2022/09/03 17:01:16;;;;;;;4.75;1.10;;;;;;;;;;6173661;23;20507;-80
2022/09/03 17:04:01;;;;;;;2.60;1.38;;;;;;;;;;6175558;23;20181;-80
2022/09/03 17:06:43;;;;;;;2.83;1.50;;;;;;;;;;6175086;23;20186;-80
2022/09/03 17:09:18;;;;;;;1.65;1.30;;;;;;;;;;6173620;23;20585;-80
2022/09/03 17:12:03;;;;;;;1.73;1.55;;;;;;;;;;6173448;23;20177;-80
2022/09/03 17:14:38;;;;;;;1.77;1.48;;;;;;;;;;6173476;23;20215;-80
2022/09/03 17:17:12;;;;;;;4.15;1.33;;;;;;;;;;6174992;23;20415;-79
2022/09/03 17:19:50;;;;;;;3.60;1.55;;;;;;;;;;6173723;23;20154;-79
2022/09/03 17:22:20;;;;;;;5.10;1.60;;;;;;;;;;6175011;23;20155;-79
2022/09/03 17:24:54;;;;;;;3.63;1.20;;;;;;;;;;6173413;23;20265;-80
2022/09/03 17:27:39;;;;;;;2.22;1.55;;;;;;;;;;6175165;23;20139;-79
2022/09/03 17:30:10;;;;;;;2.25;1.38;;;;;;;;;;6173038;23;20163;-80
2022/09/03 17:32:55;;;;;;;1.67;1.30;;;;;;;;;;6174954;23;20155;-79
2022/09/03 17:35:40;;;;;;;1.83;1.42;;;;;;;;;;6173261;23;20187;-79
2022/09/03 17:38:12;;;;;;;2.80;1.70;;;;;;;;;;6172947;23;20521;-79
2022/09/03 17:40:54;;;;;;;1.50;1.23;;;;;;;;;;6172990;23;20249;-79
2022/09/03 17:43:20;;;;;;;3.15;1.70;;;;;;;;;;6173130;23;20165;-79
2022/09/03 17:45:46;;;;;;;1.65;1.55;;;;;;;;;;6172742;23;20245;-79
2022/09/03 17:48:28;;;;;;;1.65;1.50;;;;;;;;;;6173102;23;20167;-80
2022/09/03 17:51:01;;;;;;;4.07;1.50;;;;;;;;;;6174861;23;20474;-80
2022/09/03 17:53:38;;;;;;;1.50;1.40;;;;;;;;;;6172848;23;20183;-80
2022/09/03 17:56:07;;;;;;;2.97;1.70;;;;;;;;;;6174482;23;20489;-80
2022/09/03 17:58:50;;;;;;;4.43;1.50;;;;;;;;;;6175171;23;20189;-79
2022/09/03 18:01:20;;;;;;;2.58;1.52;;;;;;;;;;6175288;23;20163;-79
2022/09/03 18:03:58;;;;;;;3.47;1.55;;;;;;;;;;6172642;23;20179;-80
2022/09/03 18:06:32;;;;;;;2.78;1.52;;;;;;;;;;6172741;23;20165;-80
2022/09/03 18:09:07;;;;;;;2.22;1.70;;;;;;;;;;6175412;23;20148;-80
2022/09/03 18:11:36;;;;;;;1.80;1.50;;;;;;;;;;6172457;23;20189;-80
2022/09/03 18:14:11;;;;;;;1.83;1.50;;;;;;;;;;6174475;23;20254;-79
2022/09/03 18:16:41;;;;;;;3.28;1.58;;;;;;;;;;6174336;23;20237;-79
2022/09/03 20:11:18;;;;;;;1.52;1.30;;;;;;;;;;6175745;23;20190;-80
2022/09/03 20:16:44;;;;;;;3.20;1.88;;;;;;;;;;6175959;23;20151;-80
2022/09/03 20:19:10;;;;;;;2.55;1.98;;;;;;;;;;6174082;23;20173;-80
2022/09/03 20:21:46;;;;;;;2.42;1.80;;;;;;;;;;6173592;23;20480;-80
2022/09/03 20:24:32;;;;;;;5.00;1.88;;;;;;;;;;6173683;23;20643;-79
2022/09/03 20:27:20;;;;;;;3.05;1.80;;;;;;;;;;6173560;23;20170;-80
2022/09/03 20:29:56;;;;;;;3.92;1.85;;;;;;;;;;6173962;23;20154;-80
2022/09/03 20:32:31;;;;;;;3.65;1.92;;;;;;;;;;6173251;23;20166;-81
2022/09/03 20:35:02;;;;;;;2.45;1.70;;;;;;;;;;6173976;23;20213;-80
2022/09/03 20:37:37;;;;;;;1.92;1.80;;;;;;;;;;6175143;23;20679;-80
2022/09/03 20:40:26;;;;;;;2.90;2.08;;;;;;;;;;6173656;23;20154;-80
2022/09/03 20:42:55;;;;;;;3.47;1.90;;;;;;;;;;6173439;23;20170;-79
2022/09/03 20:45:26;;;;;;;2.67;2.05;;;;;;;;;;6173905;23;20213;-80
2022/09/03 20:48:03;;;;;;;3.40;1.98;;;;;;;;;;6173448;23;20694;-81
2022/09/03 20:50:39;;;;;;;2.08;1.67;;;;;;;;;;6175348;23;20147;-80
2022/09/03 20:53:26;;;;;;;2.42;1.90;;;;;;;;;;6175116;23;20147;-80
2022/09/03 20:55:56;;;;;;;4.43;2.25;;;;;;;;;;6154963;23;20163;-79
2022/09/03 20:58:25;;;;;;;4.97;2.20;;;;;;;;;;6175372;23;20175;-80
2022/09/03 21:01:08;;;;;;;3.33;1.92;;;;;;;;;;6173601;23;20171;-79
2022/09/03 21:03:34;;;;;;;4.15;1.80;;;;;;;;;;6175018;23;20167;-81
2022/09/03 21:06:16;;;;;;;3.83;1.75;;;;;;;;;;6175262;23;20151;-80
2022/09/03 21:08:48;;;;;;;3.67;1.95;;;;;;;;;;6173498;23;20258;-80
2022/09/03 21:11:32;;;;;;;2.83;2.05;;;;;;;;;;6173356;23;20813;-80
2022/09/03 21:14:02;;;;;;;4.25;2.13;;;;;;;;;;6175108;23;20703;-80
2022/09/03 21:16:34;;;;;;;2.45;1.83;;;;;;;;;;6173616;23;20171;-79
2022/09/03 21:19:15;;;;;;;5.25;1.90;;;;;;;;;;6173468;23;20572;-80
2022/09/03 21:22:00;;;;;;;2.22;1.80;;;;;;;;;;6175394;23;20701;-79
2022/09/03 21:24:29;;;;;;;3.42;2.40;;;;;;;;;;6173674;23;20182;-79
2022/09/03 21:27:04;;;;;;;4.40;2.08;;;;;;;;;;6175082;23;20500;-79
2022/09/03 21:29:36;;;;;;;2.95;1.75;;;;;;;;;;6175385;23;20178;-82
2022/09/03 21:32:05;;;;;;;2.00;1.80;;;;;;;;;;6173124;23;20166;-80
2022/09/03 21:34:36;;;;;;;3.53;2.10;;;;;;;;;;6172911;23;20189;-79
2022/09/03 21:37:03;;;;;;;2.40;2.03;;;;;;;;;;6175215;23;20178;-80
2022/09/03 21:39:31;;;;;;;2.88;2.13;;;;;;;;;;6173814;23;20514;-80
2022/09/03 21:41:59;;;;;;;3.22;1.88;;;;;;;;;;6173734;23;20158;-79
2022/09/03 21:44:44;;;;;;;2.70;1.90;;;;;;;;;;6174969;23;20269;-79
2022/09/03 21:47:12;;;;;;;3.20;1.95;;;;;;;;;;6174724;23;20501;-80
2022/09/03 21:49:40;;;;;;;3.47;2.05;;;;;;;;;;6173691;23;20171;-79
2022/09/03 21:52:08;;;;;;;2.80;1.83;;;;;;;;;;6175761;23;20697;-80
2022/09/03 21:54:34;;;;;;;3.05;2.05;;;;;;;;;;6173424;23;20182;-80
2022/09/03 21:57:19;;;;;;;3.13;1.90;;;;;;;;;;6173336;23;20449;-79
2022/09/03 21:59:48;;;;;;;4.55;2.05;;;;;;;;;;6173134;23;20261;-81
2022/09/03 22:02:22;;;;;;;3.72;2.15;;;;;;;;;;6173488;23;20225;-80
2022/09/03 22:04:49;;;;;;;3.28;2.05;;;;;;;;;;6173712;23;20265;-79
2022/09/03 22:07:38;;;;;;;2.88;2.00;;;;;;;;;;6175403;23;20151;-79
2022/09/03 22:10:16;;;;;;;3.15;1.75;;;;;;;;;;6173735;23;20515;-80
2022/09/03 22:12:49;;;;;;;3.33;2.00;;;;;;;;;;6173680;23;20169;-79
2022/09/03 22:15:15;;;;;;;2.03;1.73;;;;;;;;;;6175392;23;20174;-79
2022/09/03 22:17:49;;;;;;;3.88;2.15;;;;;;;;;;6175231;23;20175;-79
2022/09/03 22:20:17;;;;;;;3.55;2.00;;;;;;;;;;6175584;23;20221;-79
2022/09/03 22:22:55;;;;;;;3.38;2.35;;;;;;;;;;6174926;23;20159;-80
2022/09/03 22:25:42;;;;;;;2.47;1.80;;;;;;;;;;6172980;23;20182;-79
2022/09/03 22:28:23;;;;;;;3.17;2.30;;;;;;;;;;6154713;23;20205;-79
2022/09/03 22:30:58;;;;;;;3.47;2.15;;;;;;;;;;6173603;23;20663;-79
2022/09/03 22:33:54;;;;;;;2.78;2.10;;;;;;;;;;6173475;23;20197;-79
2022/09/03 22:36:20;;;;;;;5.50;2.17;;;;;;;;;;6149369;23;20242;-79
2022/09/03 22:39:04;;;;;;;3.95;2.28;;;;;;;;;;6174740;23;20250;-79
2022/09/03 22:41:33;;;;;;;2.28;2.00;;;;;;;;;;6173448;23;20500;-80
2022/09/03 22:44:06;;;;;;;2.33;2.13;;;;;;;;;;6173324;23;20650;-79
2022/09/03 22:46:45;;;;;;;3.33;2.17;;;;;;;;;;6174684;23;20162;-81
2022/09/03 22:49:20;;;;;;;2.80;2.10;;;;;;;;;;6173023;23;20158;-79
2022/09/03 22:51:52;;;;;;;4.20;2.22;;;;;;;;;;6174554;23;20139;-81
2022/09/03 22:54:31;;;;;;;2.53;2.22;;;;;;;;;;6172828;23;20218;-79
2022/09/03 22:56:59;;;;;;;4.47;2.28;;;;;;;;;;6172630;23;20158;-79
2022/09/03 22:59:28;;;;;;;2.58;2.38;;;;;;;;;;6174280;23;20162;-79
2022/09/03 23:02:06;;;;;;;3.08;2.58;;;;;;;;;;6175076;23;20230;-79
2022/09/03 23:04:49;;;;;;;3.85;2.35;;;;;;;;;;6174003;23;20171;-79
2022/09/03 23:07:20;;;;;;;4.05;2.33;;;;;;;;;;6172441;23;20151;-80
2022/09/03 23:09:50;;;;;;;4.15;2.63;;;;;;;;;;6174178;23;20226;-79
2022/09/03 23:12:34;;;;;;;4.50;2.50;;;;;;;;;;6174810;23;20159;-81
2022/09/03 23:15:05;;;;;;;3.78;2.40;;;;;;;;;;6172508;23;20191;-79
2022/09/03 23:17:38;;;;;;;6.15;2.70;;;;;;;;;;6172348;23;20265;-79
2022/09/03 23:20:04;;;;;;;4.03;2.63;;;;;;;;;;6173052;23;20190;-79
2022/09/03 23:22:37;;;;;;;3.30;2.50;;;;;;;;;;6174197;23;20157;-79
2022/09/03 23:25:07;;;;;;;5.30;2.50;;;;;;;;;;6174640;23;20171;-80
2022/09/03 23:27:39;;;;;;;3.30;2.40;;;;;;;;;;6172917;23;20162;-79
2022/09/03 23:30:05;;;;;;;3.33;2.65;;;;;;;;;;6174268;23;20185;-79
2022/09/03 23:32:32;;;;;;;4.60;2.38;;;;;;;;;;6174468;23;20158;-80
2022/09/03 23:34:59;;;;;;;3.80;2.30;;;;;;;;;;6172279;23;20229;-80
2022/09/03 23:37:40;;;;;;;3.90;2.60;;;;;;;;;;6172351;23;20186;-80
2022/09/03 23:40:27;;;;;;;5.13;2.65;;;;;;;;;;6174187;23;20145;-79
2022/09/03 23:43:12;;;;;;;4.07;2.63;;;;;;;;;;6173927;23;20793;-81
2022/09/03 23:45:47;;;;;;;2.58;2.38;;;;;;;;;;6172889;23;20167;-79
2022/09/03 23:48:35;;;;;;;3.63;2.33;;;;;;;;;;6174634;23;20158;-79
2022/09/03 23:51:13;;;;;;;2.70;2.47;;;;;;;;;;6174767;23;20162;-80
2022/09/03 23:53:50;;;;;;;3.28;2.45;;;;;;;;;;6174808;23;20225;-81
2022/09/03 23:56:28;;;;;;;3.90;2.60;;;;;;;;;;6174289;23;20150;-79
2022/09/03 23:59:06;;;;;;;3.45;2.63;;;;;;;;;;6172295;23;20457;-79
